Time;durP1;ratioP1;P1;durP2;ratioP2;P2;SDS_P1;SDS_P2;PMS_P1;PMS_P2;Temp;Humidity;BMP_temperature;BMP_pressure;BME280_temperature;BME280_humidity;BME280_pressure;Samples;Min_cycle;Max_cycle;Signal;HPM_P1;HPM_P2
2022/05/05 00:01:41;;;;;;;10.43;6.25;;;;;;;;;;5047624;28;20097;-67
2022/05/05 00:04:07;;;;;;;11.80;7.10;;;;;;;;;;5063758;28;20076;-66
2022/05/05 00:06:34;;;;;;;11.35;6.78;;;;;;;;;;5069538;28;20902;-66
2022/05/05 00:09:00;;;;;;;15.65;6.85;;;;;;;;;;5067832;28;20407;-66
2022/05/05 00:14:28;;;;;;;11.40;6.35;;;;;;;;;;5063958;28;20052;-66
2022/05/05 00:16:56;;;;;;;10.30;6.78;;;;;;;;;;5066232;28;20445;-66
2022/05/05 00:19:22;;;;;;;11.27;7.22;;;;;;;;;;5065992;28;20563;-66
2022/05/05 00:21:48;;;;;;;15.63;7.05;;;;;;;;;;5064175;28;20494;-66
2022/05/05 00:24:16;;;;;;;13.45;7.90;;;;;;;;;;5072471;28;20036;-66
2022/05/05 00:26:42;;;;;;;12.88;7.45;;;;;;;;;;5066439;28;20039;-66
2022/05/05 00:29:08;;;;;;;10.45;7.05;;;;;;;;;;5046125;28;20067;-66
2022/05/05 00:31:35;;;;;;;12.57;7.40;;;;;;;;;;5073852;28;20442;-66
2022/05/05 00:34:01;;;;;;;12.73;6.90;;;;;;;;;;5045387;28;20114;-67
2022/05/05 00:36:27;;;;;;;12.25;7.30;;;;;;;;;;5064199;28;20179;-66
2022/05/05 00:38:53;;;;;;;10.15;7.30;;;;;;;;;;5047881;28;20059;-66
2022/05/05 00:41:20;;;;;;;11.80;6.63;;;;;;;;;;5064511;28;20444;-66
2022/05/05 00:43:46;;;;;;;14.38;7.35;;;;;;;;;;5071142;28;20131;-66
2022/05/05 00:46:12;;;;;;;12.45;7.60;;;;;;;;;;5064145;28;20048;-66
2022/05/05 00:48:38;;;;;;;14.30;8.35;;;;;;;;;;5064873;28;20041;-66
2022/05/05 00:51:04;;;;;;;13.00;7.68;;;;;;;;;;5062316;28;20444;-66
2022/05/05 00:53:30;;;;;;;12.80;7.20;;;;;;;;;;5068357;28;20337;-66
2022/05/05 00:55:58;;;;;;;12.00;7.55;;;;;;;;;;5070067;28;20211;-66
2022/05/05 00:58:25;;;;;;;13.25;6.70;;;;;;;;;;5067360;28;20043;-67
2022/05/05 01:00:52;;;;;;;13.38;7.28;;;;;;;;;;5069035;28;20044;-66
2022/05/05 01:03:18;;;;;;;13.48;7.57;;;;;;;;;;5067157;28;20036;-66
2022/05/05 01:05:45;;;;;;;9.25;7.07;;;;;;;;;;5066217;28;20119;-66
2022/05/05 01:08:11;;;;;;;10.75;6.72;;;;;;;;;;5068099;28;20122;-66
2022/05/05 01:10:37;;;;;;;9.20;6.70;;;;;;;;;;5069267;28;20444;-66
2022/05/05 01:13:04;;;;;;;14.65;7.70;;;;;;;;;;5075554;28;20056;-66
2022/05/05 01:15:30;;;;;;;11.40;7.95;;;;;;;;;;5066536;28;20124;-66
2022/05/05 01:17:57;;;;;;;14.23;7.38;;;;;;;;;;5068193;28;20444;-66
2022/05/05 01:20:23;;;;;;;19.95;8.15;;;;;;;;;;5052193;28;20514;-67
2022/05/05 01:22:52;;;;;;;11.60;7.40;;;;;;;;;;5066830;28;20039;-66
2022/05/05 01:28:13;;;;;;;14.50;7.75;;;;;;;;;;5067218;28;20040;-66
2022/05/05 01:30:46;;;;;;;11.20;7.68;;;;;;;;;;5050316;28;20040;-66
2022/05/05 01:33:13;;;;;;;;;;;;;;;;;;5073530;28;20126;-66
2022/05/05 01:35:39;;;;;;;18.67;7.07;;;;;;;;;;5050923;28;19920;-66
2022/05/05 01:38:07;;;;;;;9.50;6.80;;;;;;;;;;5049229;28;20663;-66
2022/05/05 01:40:35;;;;;;;14.68;7.82;;;;;;;;;;5069955;28;20059;-66
2022/05/05 01:43:02;;;;;;;11.50;7.22;;;;;;;;;;5067597;28;20032;-66
2022/05/05 01:45:29;;;;;;;10.77;7.00;;;;;;;;;;5048599;28;20098;-66
2022/05/05 01:47:55;;;;;;;11.48;7.03;;;;;;;;;;5067929;28;20048;-65
2022/05/05 01:50:22;;;;;;;10.32;7.20;;;;;;;;;;5053465;28;20515;-65
2022/05/05 01:52:49;;;;;;;10.27;7.00;;;;;;;;;;5056787;28;20359;-66
2022/05/05 01:55:15;;;;;;;10.93;6.90;;;;;;;;;;5067809;28;20033;-66
2022/05/05 01:57:41;;;;;;;11.82;7.47;;;;;;;;;;5076336;28;20040;-66
2022/05/05 02:00:07;;;;;;;16.95;8.50;;;;;;;;;;5048372;28;20074;-66
2022/05/05 02:02:33;;;;;;;12.07;6.90;;;;;;;;;;5067135;28;20090;-65
2022/05/05 02:05:00;;;;;;;12.55;7.38;;;;;;;;;;5048306;28;20074;-65
2022/05/05 02:07:26;;;;;;;13.52;7.80;;;;;;;;;;5066403;28;20052;-66
2022/05/05 02:09:52;;;;;;;13.05;7.07;;;;;;;;;;5063827;28;20036;-66
2022/05/05 02:12:18;;;;;;;14.75;8.35;;;;;;;;;;5066198;28;20095;-66
2022/05/05 02:14:45;;;;;;;13.88;7.40;;;;;;;;;;5066516;28;20053;-66
2022/05/05 02:17:11;;;;;;;12.75;7.82;;;;;;;;;;5058412;28;20048;-66
2022/05/05 02:19:39;;;;;;;13.68;7.28;;;;;;;;;;5066546;28;20076;-66
2022/05/05 02:22:05;;;;;;;10.10;6.95;;;;;;;;;;5074161;28;20375;-65
2022/05/05 02:24:31;;;;;;;10.13;7.95;;;;;;;;;;5068921;28;20032;-66
2022/05/05 02:26:57;;;;;;;12.23;7.40;;;;;;;;;;5067536;28;20525;-66
2022/05/05 02:29:23;;;;;;;10.40;6.65;;;;;;;;;;5051440;28;20171;-66
2022/05/05 02:31:49;;;;;;;14.20;8.35;;;;;;;;;;5054969;28;20044;-65
2022/05/05 02:34:15;;;;;;;13.52;7.88;;;;;;;;;;5068518;28;20044;-66
2022/05/05 02:39:26;;;;;;;11.68;7.20;;;;;;;;;;5068810;28;20493;-66
2022/05/05 02:41:52;;;;;;;12.48;7.80;;;;;;;;;;5065635;28;20657;-66
2022/05/05 02:44:19;;;;;;;17.40;7.60;;;;;;;;;;5065642;28;20127;-66
2022/05/05 02:46:45;;;;;;;11.00;6.90;;;;;;;;;;5054552;28;20096;-66
2022/05/05 02:49:13;;;;;;;11.13;7.03;;;;;;;;;;5061768;28;20049;-65
2022/05/05 02:51:39;;;;;;;11.75;7.38;;;;;;;;;;5050392;28;20124;-66
2022/05/05 02:56:50;;;;;;;10.63;7.30;;;;;;;;;;5070582;28;20048;-66
2022/05/05 02:59:16;;;;;;;9.63;7.10;;;;;;;;;;5051114;28;20041;-65
2022/05/05 03:01:42;;;;;;;15.27;7.18;;;;;;;;;;5068134;28;20487;-65
2022/05/05 03:04:08;;;;;;;14.25;7.10;;;;;;;;;;5064393;28;20045;-66
2022/05/05 03:06:34;;;;;;;13.98;8.20;;;;;;;;;;5067621;28;20468;-66
2022/05/05 03:09:00;;;;;;;11.25;6.68;;;;;;;;;;5069895;28;20078;-66
2022/05/05 03:11:27;;;;;;;12.73;6.82;;;;;;;;;;5051234;28;20051;-66
2022/05/05 03:13:53;;;;;;;13.02;7.70;;;;;;;;;;5049305;28;20136;-66
2022/05/05 03:16:19;;;;;;;13.73;7.03;;;;;;;;;;5071273;28;20072;-66
2022/05/05 03:18:45;;;;;;;10.20;6.65;;;;;;;;;;5063946;28;20048;-66
2022/05/05 03:21:11;;;;;;;10.68;6.70;;;;;;;;;;5069963;28;20131;-66
2022/05/05 03:23:37;;;;;;;10.35;6.50;;;;;;;;;;5031782;28;20098;-66
2022/05/05 03:26:04;;;;;;;10.70;7.00;;;;;;;;;;5065881;28;20111;-66
2022/05/05 03:28:30;;;;;;;13.90;6.65;;;;;;;;;;5047539;28;20055;-65
2022/05/05 03:30:56;;;;;;;13.20;7.05;;;;;;;;;;5071855;28;20040;-66
2022/05/05 03:33:23;;;;;;;11.10;6.78;;;;;;;;;;5071567;28;20486;-65
2022/05/05 03:35:49;;;;;;;11.65;7.70;;;;;;;;;;5064209;28;20091;-66
2022/05/05 03:38:15;;;;;;;12.30;7.40;;;;;;;;;;5065882;28;20106;-66
2022/05/05 03:40:41;;;;;;;12.27;6.97;;;;;;;;;;5068265;28;20041;-66
2022/05/05 03:43:07;;;;;;;11.18;7.15;;;;;;;;;;5055525;28;20036;-65
2022/05/05 03:45:33;;;;;;;11.13;7.38;;;;;;;;;;5064622;28;20076;-66
2022/05/05 03:47:59;;;;;;;14.40;7.57;;;;;;;;;;5047384;28;20044;-66
2022/05/05 03:50:26;;;;;;;13.00;7.38;;;;;;;;;;5048883;28;20508;-65
2022/05/05 03:52:52;;;;;;;12.10;7.45;;;;;;;;;;5067060;28;20040;-66
2022/05/05 03:55:18;;;;;;;10.07;7.10;;;;;;;;;;5066299;28;20522;-66
2022/05/05 03:57:44;;;;;;;12.85;7.05;;;;;;;;;;5066653;28;20391;-66
2022/05/05 04:00:10;;;;;;;14.68;8.32;;;;;;;;;;5050365;28;20496;-66
2022/05/05 04:02:36;;;;;;;14.57;7.85;;;;;;;;;;5055058;28;20490;-65
2022/05/05 04:05:02;;;;;;;13.93;7.93;;;;;;;;;;5064951;28;20072;-66
2022/05/05 04:07:29;;;;;;;12.35;7.65;;;;;;;;;;5064651;28;20040;-66
2022/05/05 04:09:55;;;;;;;11.52;6.82;;;;;;;;;;5064603;28;20124;-65
2022/05/05 04:12:21;;;;;;;11.27;7.93;;;;;;;;;;5049231;28;20052;-65
2022/05/05 04:14:55;;;;;;;11.93;8.73;;;;;;;;;;5064689;28;20047;-65
2022/05/05 04:17:22;;;;;;;15.30;8.57;;;;;;;;;;5051015;28;20493;-65
2022/05/05 04:19:48;;;;;;;12.23;8.57;;;;;;;;;;5063209;28;20055;-65
2022/05/05 04:22:14;;;;;;;13.05;8.15;;;;;;;;;;5050718;28;20068;-65
2022/05/05 04:24:40;;;;;;;14.27;8.73;;;;;;;;;;5048960;28;20130;-65
2022/05/05 04:27:07;;;;;;;10.75;8.07;;;;;;;;;;5046107;28;20500;-65
2022/05/05 04:29:33;;;;;;;19.92;8.27;;;;;;;;;;5055265;28;20134;-65
2022/05/05 04:31:59;;;;;;;13.05;8.43;;;;;;;;;;5067531;28;20071;-66
2022/05/05 04:34:25;;;;;;;16.30;8.35;;;;;;;;;;5051663;28;20055;-66
2022/05/05 04:36:53;;;;;;;12.15;6.85;;;;;;;;;;5046673;28;20039;-65
2022/05/05 04:39:19;;;;;;;13.05;7.78;;;;;;;;;;5064779;28;20114;-66
2022/05/05 04:41:45;;;;;;;13.25;7.93;;;;;;;;;;5069587;28;20105;-65
2022/05/05 04:44:12;;;;;;;13.40;7.78;;;;;;;;;;5048625;28;20457;-65
2022/05/05 04:46:38;;;;;;;10.35;7.45;;;;;;;;;;5049574;28;20055;-66
2022/05/05 04:49:05;;;;;;;13.75;9.40;;;;;;;;;;5063250;28;20216;-66
2022/05/05 04:51:31;;;;;;;15.35;8.50;;;;;;;;;;5046345;28;20133;-66
2022/05/05 04:53:58;;;;;;;18.50;9.00;;;;;;;;;;5065936;28;20040;-66
2022/05/05 04:56:24;;;;;;;17.27;9.38;;;;;;;;;;5047433;28;20043;-65
2022/05/05 04:58:50;;;;;;;13.70;9.05;;;;;;;;;;5065000;28;20071;-66
2022/05/05 05:01:16;;;;;;;12.95;10.05;;;;;;;;;;5063550;28;20110;-66
2022/05/05 05:03:42;;;;;;;17.77;8.68;;;;;;;;;;5066062;28;20044;-65
2022/05/05 05:06:09;;;;;;;12.98;8.75;;;;;;;;;;5045783;28;20047;-66
2022/05/05 05:08:36;;;;;;;13.23;8.68;;;;;;;;;;5047582;28;20054;-65
2022/05/05 05:11:02;;;;;;;18.23;8.45;;;;;;;;;;5048398;28;20127;-66
2022/05/05 05:13:28;;;;;;;16.02;8.82;;;;;;;;;;5050302;28;20055;-66
2022/05/05 05:15:54;;;;;;;11.40;8.13;;;;;;;;;;5064482;28;20094;-65
2022/05/05 05:18:20;;;;;;;12.38;7.72;;;;;;;;;;5066922;28;20041;-65
2022/05/05 05:20:48;;;;;;;13.05;8.77;;;;;;;;;;5048205;28;20055;-66
2022/05/05 05:23:14;;;;;;;14.45;8.80;;;;;;;;;;5063729;28;20094;-66
2022/05/05 05:25:40;;;;;;;15.70;8.70;;;;;;;;;;5065615;28;20036;-65
2022/05/05 05:28:07;;;;;;;14.57;9.05;;;;;;;;;;5048576;28;20072;-65
2022/05/05 05:30:33;;;;;;;16.85;9.38;;;;;;;;;;5064201;28;20040;-66
2022/05/05 05:32:59;;;;;;;14.88;9.85;;;;;;;;;;5049664;28;20055;-66
2022/05/05 05:35:25;;;;;;;21.15;10.43;;;;;;;;;;5063260;28;20043;-66
2022/05/05 05:37:51;;;;;;;11.32;8.13;;;;;;;;;;5063810;28;20042;-66
2022/05/05 05:40:18;;;;;;;11.80;9.10;;;;;;;;;;5045882;28;20786;-66
2022/05/05 05:42:44;;;;;;;17.85;8.88;;;;;;;;;;5066634;28;20513;-66
2022/05/05 05:45:13;;;;;;;13.65;8.77;;;;;;;;;;5051773;28;20062;-66
2022/05/05 05:47:39;;;;;;;14.25;8.57;;;;;;;;;;5051056;28;20044;-66
2022/05/05 05:50:05;;;;;;;13.88;8.52;;;;;;;;;;5065545;28;20248;-65
2022/05/05 05:52:32;;;;;;;15.40;8.73;;;;;;;;;;5066761;28;20083;-66
2022/05/05 05:54:58;;;;;;;13.80;8.02;;;;;;;;;;5044165;28;20048;-66
2022/05/05 05:57:25;;;;;;;16.05;9.07;;;;;;;;;;5050372;28;20043;-66
2022/05/05 05:59:51;;;;;;;10.82;8.07;;;;;;;;;;5064944;28;20045;-66
2022/05/05 06:05:12;;;;;;;13.70;8.80;;;;;;;;;;5009408;28;20041;-66
2022/05/05 06:07:38;;;;;;;20.23;10.00;;;;;;;;;;5066814;28;20150;-66
2022/05/05 06:10:05;;;;;;;16.25;9.13;;;;;;;;;;5047235;28;20505;-66
2022/05/05 06:12:31;;;;;;;12.82;8.57;;;;;;;;;;5066788;28;20045;-66
2022/05/05 06:14:57;;;;;;;15.93;8.18;;;;;;;;;;5067356;28;20091;-66
2022/05/05 06:17:23;;;;;;;15.35;8.77;;;;;;;;;;5033199;28;20036;-66
2022/05/05 06:19:49;;;;;;;17.15;9.05;;;;;;;;;;5065395;28;20040;-66
2022/05/05 06:22:16;;;;;;;14.82;8.25;;;;;;;;;;5067825;28;20367;-66
2022/05/05 06:24:42;;;;;;;14.45;9.07;;;;;;;;;;5066201;28;20511;-66
2022/05/05 06:27:08;;;;;;;14.40;8.88;;;;;;;;;;5067765;28;20037;-66
2022/05/05 06:29:34;;;;;;;14.65;8.48;;;;;;;;;;5048506;28;20085;-66
2022/05/05 06:32:00;;;;;;;16.67;9.82;;;;;;;;;;5050679;28;20641;-66
2022/05/05 06:34:26;;;;;;;12.77;8.43;;;;;;;;;;5065630;28;20048;-66
2022/05/05 06:36:52;;;;;;;18.10;8.95;;;;;;;;;;5068726;28;20040;-66
2022/05/05 06:39:19;;;;;;;15.18;9.40;;;;;;;;;;5047781;28;20123;-66
2022/05/05 06:41:45;;;;;;;13.93;9.45;;;;;;;;;;5065974;28;20037;-67
2022/05/05 06:44:11;;;;;;;24.38;9.05;;;;;;;;;;5067388;28;20459;-66
2022/05/05 06:46:38;;;;;;;16.92;8.10;;;;;;;;;;5048722;28;20569;-66
2022/05/05 06:49:05;;;;;;;16.65;9.88;;;;;;;;;;5065388;28;20101;-66
2022/05/05 06:51:31;;;;;;;13.05;7.95;;;;;;;;;;5072112;28;20093;-66
2022/05/05 06:53:57;;;;;;;11.75;8.85;;;;;;;;;;5044430;28;20077;-66
2022/05/05 06:56:25;;;;;;;13.07;7.50;;;;;;;;;;5066545;28;20126;-66
2022/05/05 06:58:51;;;;;;;13.65;9.15;;;;;;;;;;5044629;28;20299;-66
2022/05/05 07:06:47;;;;;;;16.00;9.57;;;;;;;;;;5062771;28;20119;-65
2022/05/05 07:11:58;;;;;;;13.30;8.30;;;;;;;;;;5064156;28;20550;-66
2022/05/05 07:14:25;;;;;;;11.75;8.38;;;;;;;;;;5045844;28;20136;-66
2022/05/05 07:16:51;;;;;;;18.52;9.48;;;;;;;;;;5064721;28;20496;-66
2022/05/05 07:19:17;;;;;;;23.80;9.95;;;;;;;;;;5044989;28;20040;-66
2022/05/05 07:21:43;;;;;;;19.45;8.45;;;;;;;;;;5029580;28;20072;-66
2022/05/05 07:24:09;;;;;;;12.55;8.13;;;;;;;;;;5063079;28;20084;-66
2022/05/05 07:26:35;;;;;;;15.48;9.55;;;;;;;;;;5047641;28;20037;-66
2022/05/05 07:29:02;;;;;;;13.77;8.38;;;;;;;;;;5035112;28;20504;-66
2022/05/05 07:31:28;;;;;;;15.55;7.13;;;;;;;;;;5045151;28;20044;-66
2022/05/05 07:33:54;;;;;;;17.83;8.65;;;;;;;;;;5045358;28;20445;-66
2022/05/05 07:36:21;;;;;;;15.00;8.73;;;;;;;;;;5044665;28;20158;-67
2022/05/05 07:38:47;;;;;;;14.98;7.53;;;;;;;;;;5062890;28;20418;-66
2022/05/05 07:41:13;;;;;;;11.73;7.88;;;;;;;;;;5047822;28;20036;-66
2022/05/05 07:43:39;;;;;;;10.73;7.15;;;;;;;;;;5063691;28;20485;-66
2022/05/05 07:46:05;;;;;;;13.18;7.72;;;;;;;;;;5063442;28;20075;-66
2022/05/05 07:48:31;;;;;;;17.33;8.13;;;;;;;;;;5046964;28;20115;-66
2022/05/05 07:50:58;;;;;;;12.10;7.63;;;;;;;;;;5062031;28;20039;-66
2022/05/05 07:53:24;;;;;;;12.32;7.30;;;;;;;;;;5061618;28;20044;-66
2022/05/05 07:55:50;;;;;;;12.32;6.93;;;;;;;;;;5049110;28;20068;-66
2022/05/05 07:58:17;;;;;;;16.77;8.60;;;;;;;;;;5045446;28;20040;-66
2022/05/05 08:00:43;;;;;;;11.05;6.95;;;;;;;;;;5064454;28;20497;-66
2022/05/05 08:03:09;;;;;;;14.45;7.90;;;;;;;;;;5061921;28;20047;-66
2022/05/05 08:05:35;;;;;;;13.68;6.45;;;;;;;;;;5045096;28;20135;-66
2022/05/05 08:08:01;;;;;;;9.50;6.07;;;;;;;;;;5064022;28;20147;-67
2022/05/05 08:10:29;;;;;;;12.13;6.50;;;;;;;;;;5043993;28;20720;-66
2022/05/05 08:12:56;;;;;;;12.63;7.28;;;;;;;;;;5062754;28;20593;-67
2022/05/05 08:15:22;;;;;;;15.02;6.32;;;;;;;;;;5041551;28;20283;-66
2022/05/05 08:17:49;;;;;;;12.10;6.38;;;;;;;;;;5047376;28;20060;-67
2022/05/05 08:20:15;;;;;;;9.40;6.85;;;;;;;;;;5040123;28;20427;-67
2022/05/05 08:22:42;;;;;;;9.05;5.00;;;;;;;;;;5041824;28;20513;-66
2022/05/05 08:30:39;;;;;;;6.82;5.28;;;;;;;;;;5042521;28;20061;-66
2022/05/05 08:33:05;;;;;;;9.13;5.80;;;;;;;;;;5038177;28;20045;-67
2022/05/05 08:35:31;;;;;;;16.55;5.80;;;;;;;;;;5044044;28;20049;-66
2022/05/05 08:37:58;;;;;;;7.60;5.55;;;;;;;;;;5046039;28;20044;-67
2022/05/05 08:40:25;;;;;;;7.18;4.38;;;;;;;;;;5044321;28;20048;-67
2022/05/05 08:42:51;;;;;;;10.65;4.78;;;;;;;;;;5045138;28;20044;-67
2022/05/05 08:45:18;;;;;;;11.80;6.22;;;;;;;;;;5044986;28;20044;-66
2022/05/05 08:47:46;;;;;;;12.00;5.47;;;;;;;;;;5041898;28;20044;-67
2022/05/05 08:50:13;;;;;;;13.88;6.15;;;;;;;;;;5020806;28;20040;-66
2022/05/05 08:52:45;;;;;;;20.90;6.03;;;;;;;;;;5047013;28;20044;-66
2022/05/05 08:55:15;;;;;;;15.98;4.68;;;;;;;;;;5047219;28;20115;-66
2022/05/05 08:57:42;;;;;;;18.52;5.18;;;;;;;;;;5042212;28;20043;-66
2022/05/05 09:00:10;;;;;;;5.28;4.05;;;;;;;;;;5042697;28;20044;-67
2022/05/05 09:02:36;;;;;;;9.15;4.82;;;;;;;;;;5042891;28;20037;-67
2022/05/05 09:05:06;;;;;;;8.63;4.93;;;;;;;;;;5044798;28;20044;-66
2022/05/05 09:07:52;;;;;;;11.68;5.60;;;;;;;;;;5043146;28;20040;-67
2022/05/05 09:10:19;;;;;;;9.23;5.38;;;;;;;;;;5042860;28;20105;-67
2022/05/05 09:12:57;;;;;;;11.02;5.45;;;;;;;;;;5042144;28;20041;-67
2022/05/05 09:15:30;;;;;;;16.13;5.70;;;;;;;;;;5061748;28;20268;-67
2022/05/05 09:17:56;;;;;;;;;;;;;;;;;;5059691;28;20049;-67
2022/05/05 09:20:35;;;;;;;10.57;5.05;;;;;;;;;;5065944;28;20047;-66
2022/05/05 09:23:01;;;;;;;10.07;5.03;;;;;;;;;;5065522;28;20155;-66
2022/05/05 09:25:44;;;;;;;9.00;5.93;;;;;;;;;;5053800;28;20040;-67
2022/05/05 09:28:20;;;;;;;7.00;5.28;;;;;;;;;;5049297;28;20576;-67
2022/05/05 09:30:47;;;;;;;15.20;7.38;;;;;;;;;;5068927;28;20891;-67
2022/05/05 09:33:36;;;;;;;32.78;8.43;;;;;;;;;;5049503;28;20502;-67
2022/05/05 09:36:04;;;;;;;11.82;6.88;;;;;;;;;;5064600;28;20060;-67
2022/05/05 09:38:50;;;;;;;14.20;6.57;;;;;;;;;;5062221;28;20177;-67
2022/05/05 09:41:17;;;;;;;11.63;7.15;;;;;;;;;;5057554;28;20311;-67
2022/05/05 09:43:43;;;;;;;10.65;6.95;;;;;;;;;;5053008;28;20052;-67
2022/05/05 09:46:27;;;;;;;12.00;7.35;;;;;;;;;;5028999;28;20044;-67
2022/05/05 09:49:04;;;;;;;13.90;6.53;;;;;;;;;;5047147;28;20051;-67
2022/05/05 09:51:30;;;;;;;18.75;7.28;;;;;;;;;;5052102;28;20076;-67
2022/05/05 09:59:35;;;;;;;11.45;6.57;;;;;;;;;;5068499;28;20102;-67
2022/05/05 10:02:07;;;;;;;11.15;6.30;;;;;;;;;;5064567;28;20493;-68
2022/05/05 10:04:36;;;;;;;12.00;6.65;;;;;;;;;;5067493;28;20159;-67
2022/05/05 10:07:05;;;;;;;13.13;7.40;;;;;;;;;;5046350;28;20040;-68
2022/05/05 10:09:32;;;;;;;8.98;6.50;;;;;;;;;;5044204;28;20051;-67
2022/05/05 10:11:58;;;;;;;10.02;5.78;;;;;;;;;;5049308;28;20048;-67
2022/05/05 10:14:25;;;;;;;11.25;6.28;;;;;;;;;;5053209;28;20165;-68
2022/05/05 10:16:52;;;;;;;9.02;6.25;;;;;;;;;;5069800;28;20049;-67
2022/05/05 10:19:18;;;;;;;16.00;7.57;;;;;;;;;;5046856;28;20096;-67
2022/05/05 10:21:45;;;;;;;10.25;7.15;;;;;;;;;;5046107;28;20608;-68
2022/05/05 10:24:22;;;;;;;11.70;6.82;;;;;;;;;;5063909;28;20520;-67
2022/05/05 10:26:49;;;;;;;12.05;6.55;;;;;;;;;;5063778;28;20049;-67
2022/05/05 10:29:35;;;;;;;12.80;6.30;;;;;;;;;;5063159;28;20555;-68
2022/05/05 10:32:37;;;;;;;11.75;6.45;;;;;;;;;;5064653;28;20048;-68
2022/05/05 10:35:12;;;;;;;12.43;7.15;;;;;;;;;;4981455;28;20443;-67
2022/05/05 10:37:39;;;;;;;10.82;7.03;;;;;;;;;;5054741;28;20127;-68
2022/05/05 10:40:09;;;;;;;12.45;6.85;;;;;;;;;;5044972;28;20487;-67
2022/05/05 10:42:41;;;;;;;11.20;6.88;;;;;;;;;;5063240;28;20044;-68
2022/05/05 10:45:15;;;;;;;11.73;6.10;;;;;;;;;;5064936;28;20040;-68
2022/05/05 10:47:58;;;;;;;10.30;6.65;;;;;;;;;;5056205;28;20063;-67
2022/05/05 10:50:24;;;;;;;;;;;;;;;;;;5065212;28;20040;-68
2022/05/05 10:52:52;;;;;;;9.50;5.80;;;;;;;;;;5049489;28;20363;-66
2022/05/05 10:55:22;;;;;;;9.70;6.40;;;;;;;;;;5065061;28;20565;-70
2022/05/05 10:57:48;;;;;;;12.20;6.13;;;;;;;;;;5066873;28;20044;-69
2022/05/05 11:00:18;;;;;;;9.43;6.35;;;;;;;;;;5066969;28;20028;-69
2022/05/05 11:03:11;;;;;;;13.52;6.82;;;;;;;;;;5065367;28;20051;-69
2022/05/05 11:05:38;;;;;;;13.52;7.10;;;;;;;;;;5061103;28;20048;-68
2022/05/05 11:08:10;;;;;;;10.02;6.57;;;;;;;;;;5067376;28;20059;-68
2022/05/05 11:13:38;;;;;;;11.52;5.60;;;;;;;;;;5066120;28;20050;-69
2022/05/05 11:22:14;;;;;;;7.93;5.50;;;;;;;;;;5062123;28;20048;-69
2022/05/05 11:24:45;;;;;;;17.13;6.47;;;;;;;;;;5051713;28;20387;-69
2022/05/05 11:27:12;;;;;;;10.45;6.07;;;;;;;;;;5069179;28;20175;-69
2022/05/05 11:29:38;;;;;;;9.20;6.47;;;;;;;;;;5065663;28;20524;-70
2022/05/05 11:32:07;;;;;;;10.85;5.95;;;;;;;;;;5066372;28;20044;-69
2022/05/05 11:34:34;;;;;;;14.13;6.97;;;;;;;;;;5064304;28;20040;-69
2022/05/05 11:37:01;;;;;;;8.10;6.07;;;;;;;;;;5050499;28;20128;-69
2022/05/05 11:39:35;;;;;;;9.05;6.00;;;;;;;;;;5050611;28;20506;-69
2022/05/05 11:42:02;;;;;;;12.25;6.43;;;;;;;;;;5064972;28;20092;-68
2022/05/05 11:44:28;;;;;;;10.18;6.47;;;;;;;;;;5065504;28;20036;-68
2022/05/05 11:46:57;;;;;;;15.35;6.72;;;;;;;;;;5065098;28;20043;-68
2022/05/05 11:49:25;;;;;;;9.93;6.80;;;;;;;;;;5063750;28;20044;-68
2022/05/05 11:51:52;;;;;;;9.63;6.03;;;;;;;;;;5048202;28;20044;-68
2022/05/05 11:54:25;;;;;;;12.93;6.70;;;;;;;;;;5064103;28;20049;-67
2022/05/05 11:56:53;;;;;;;21.38;8.32;;;;;;;;;;5046877;28;20092;-69
2022/05/05 12:02:08;;;;;;;13.85;8.02;;;;;;;;;;5064779;28;20501;-67
2022/05/05 12:04:35;;;;;;;14.15;7.32;;;;;;;;;;5045376;28;20116;-67
2022/05/05 12:07:03;;;;;;;14.23;7.32;;;;;;;;;;5041442;28;20595;-67
2022/05/05 12:09:29;;;;;;;13.45;9.48;;;;;;;;;;5049452;28;20032;-67
2022/05/05 12:11:55;;;;;;;13.13;8.85;;;;;;;;;;5049141;28;20048;-67
2022/05/05 12:14:23;;;;;;;15.20;9.73;;;;;;;;;;5064040;28;20213;-67
2022/05/05 12:16:51;;;;;;;11.88;9.40;;;;;;;;;;5047005;28;20509;-67
2022/05/05 12:19:18;;;;;;;11.10;8.60;;;;;;;;;;5063204;28;20043;-67
2022/05/05 12:21:52;;;;;;;11.98;8.82;;;;;;;;;;5045649;28;20040;-67
2022/05/05 12:24:20;;;;;;;13.43;8.63;;;;;;;;;;5063684;28;20218;-67
2022/05/05 12:26:46;;;;;;;14.95;10.65;;;;;;;;;;5066018;28;20040;-67
2022/05/05 12:29:18;;;;;;;12.10;9.00;;;;;;;;;;5063313;28;20219;-66
2022/05/05 12:31:57;;;;;;;11.98;8.02;;;;;;;;;;5049505;28;20055;-66
2022/05/05 12:34:25;;;;;;;10.98;7.40;;;;;;;;;;5057555;28;20049;-66
2022/05/05 12:37:07;;;;;;;21.73;8.85;;;;;;;;;;5045831;28;20171;-67
2022/05/05 12:39:33;;;;;;;14.02;9.77;;;;;;;;;;5050631;28;20130;-67
2022/05/05 12:42:00;;;;;;;15.18;9.55;;;;;;;;;;5046613;28;20048;-68
2022/05/05 12:44:33;;;;;;;13.13;10.30;;;;;;;;;;5029985;28;20051;-67
2022/05/05 12:47:03;;;;;;;17.58;10.95;;;;;;;;;;5045685;28;20051;-67
2022/05/05 12:49:36;;;;;;;15.73;10.75;;;;;;;;;;5063040;28;20036;-67
2022/05/05 12:52:04;;;;;;;15.00;10.02;;;;;;;;;;5050111;28;20407;-67
2022/05/05 13:00:00;;;;;;;17.05;10.55;;;;;;;;;;5071138;28;20146;-69
2022/05/05 13:02:26;;;;;;;14.30;9.40;;;;;;;;;;5068511;28;20147;-67
2022/05/05 13:04:52;;;;;;;19.00;11.13;;;;;;;;;;5066699;28;20569;-67
2022/05/05 13:07:19;;;;;;;18.20;12.05;;;;;;;;;;5074635;28;20363;-68
2022/05/05 13:09:45;;;;;;;17.23;12.68;;;;;;;;;;5069283;28;20495;-67
2022/05/05 13:12:12;;;;;;;16.33;10.98;;;;;;;;;;5067857;28;20494;-67
2022/05/05 13:14:38;;;;;;;18.90;11.98;;;;;;;;;;5066752;28;20159;-67
2022/05/05 13:17:04;;;;;;;17.58;11.63;;;;;;;;;;5053341;28;20083;-67
2022/05/05 13:19:30;;;;;;;16.02;11.50;;;;;;;;;;5049745;28;20051;-67
2022/05/05 13:21:57;;;;;;;20.17;13.75;;;;;;;;;;5067712;28;20044;-67
2022/05/05 13:24:23;;;;;;;18.73;12.90;;;;;;;;;;5068001;28;20154;-66
2022/05/05 13:26:49;;;;;;;19.67;11.70;;;;;;;;;;5054913;28;20100;-68
2022/05/05 13:29:15;;;;;;;18.83;12.15;;;;;;;;;;5068327;28;20061;-67
2022/05/05 13:31:42;;;;;;;20.95;11.35;;;;;;;;;;5068034;28;20119;-67
2022/05/05 13:34:08;;;;;;;16.90;10.20;;;;;;;;;;5066572;28;20094;-67
2022/05/05 13:36:38;;;;;;;18.65;12.32;;;;;;;;;;5073880;28;20051;-67
2022/05/05 13:39:04;;;;;;;24.38;12.20;;;;;;;;;;5052276;28;20671;-67
2022/05/05 13:41:31;;;;;;;17.70;12.15;;;;;;;;;;5066419;28;20041;-66
2022/05/05 13:43:57;;;;;;;17.95;11.77;;;;;;;;;;5049384;28;20047;-67
2022/05/05 13:46:23;;;;;;;16.60;11.20;;;;;;;;;;5071489;28;20062;-67
2022/05/05 13:48:50;;;;;;;19.35;12.85;;;;;;;;;;5048712;28;20048;-67
2022/05/05 13:51:16;;;;;;;21.45;13.55;;;;;;;;;;5067193;28;20051;-66
2022/05/05 13:53:42;;;;;;;22.05;13.60;;;;;;;;;;5067404;28;20052;-66
2022/05/05 13:56:09;;;;;;;31.08;18.20;;;;;;;;;;5067072;28;20048;-66
2022/05/05 13:58:35;;;;;;;25.67;17.70;;;;;;;;;;5065571;28;20037;-67
2022/05/05 14:01:01;;;;;;;28.63;19.02;;;;;;;;;;5067780;28;20482;-67
2022/05/05 14:03:30;;;;;;;30.70;19.38;;;;;;;;;;5057143;28;20032;-67
2022/05/05 14:05:56;;;;;;;25.13;17.00;;;;;;;;;;5053852;28;20040;-67
2022/05/05 14:13:52;;;;;;;31.77;19.52;;;;;;;;;;5046633;28;20070;-67
2022/05/05 14:16:18;;;;;;;27.50;16.85;;;;;;;;;;5046304;28;20048;-67
2022/05/05 14:18:45;;;;;;;28.90;18.80;;;;;;;;;;5065411;28;20048;-68
2022/05/05 14:21:11;;;;;;;34.63;20.52;;;;;;;;;;5065671;28;20048;-68
2022/05/05 14:23:37;;;;;;;31.38;20.33;;;;;;;;;;5069762;28;20040;-68
2022/05/05 14:26:04;;;;;;;33.25;20.48;;;;;;;;;;5049199;28;20036;-68
2022/05/05 14:28:30;;;;;;;27.23;19.58;;;;;;;;;;5065753;28;20500;-69
2022/05/05 14:30:56;;;;;;;31.02;19.55;;;;;;;;;;5050107;28;20033;-69
2022/05/05 14:33:22;;;;;;;30.67;19.10;;;;;;;;;;5046079;28;20040;-69
2022/05/05 14:35:49;;;;;;;32.28;19.88;;;;;;;;;;5063025;28;20459;-69
2022/05/05 14:38:15;;;;;;;29.63;20.08;;;;;;;;;;5046429;28;20047;-68
2022/05/05 14:40:42;;;;;;;33.53;20.65;;;;;;;;;;5063263;28;20036;-69
2022/05/05 14:43:08;;;;;;;28.67;20.17;;;;;;;;;;5064039;28;20498;-69
2022/05/05 14:45:34;;;;;;;30.85;18.33;;;;;;;;;;5014634;28;20056;-69
2022/05/05 14:48:01;;;;;;;28.40;19.95;;;;;;;;;;5001264;28;20080;-69
2022/05/05 14:50:27;;;;;;;30.13;22.35;;;;;;;;;;4987787;28;20041;-68
2022/05/05 14:52:53;;;;;;;30.02;20.13;;;;;;;;;;5002483;28;20049;-68
2022/05/05 14:55:20;;;;;;;30.88;19.27;;;;;;;;;;5003743;28;20042;-69
2022/05/05 14:57:47;;;;;;;28.02;20.40;;;;;;;;;;5004886;28;20034;-68
2022/05/05 15:00:13;;;;;;;29.60;20.55;;;;;;;;;;4987000;28;20045;-68
2022/05/05 15:02:40;;;;;;;31.23;20.05;;;;;;;;;;5004851;28;20049;-68
2022/05/05 15:05:06;;;;;;;33.72;20.35;;;;;;;;;;5003888;28;20567;-69
2022/05/05 15:07:32;;;;;;;29.98;20.58;;;;;;;;;;5006278;28;20041;-69
2022/05/05 15:09:59;;;;;;;33.15;21.42;;;;;;;;;;5004023;28;20266;-69
2022/05/05 15:12:25;;;;;;;28.98;19.58;;;;;;;;;;5004511;28;20038;-69
2022/05/05 15:14:52;;;;;;;26.15;18.25;;;;;;;;;;4982537;28;20054;-69
2022/05/05 15:17:18;;;;;;;32.42;21.63;;;;;;;;;;4984416;28;20081;-69
2022/05/05 15:19:44;;;;;;;32.38;20.25;;;;;;;;;;4983883;28;20046;-69
2022/05/05 15:22:11;;;;;;;29.52;21.42;;;;;;;;;;4982802;28;20221;-68
2022/05/05 15:24:37;;;;;;;35.97;22.13;;;;;;;;;;4981662;28;20053;-68
2022/05/05 15:27:04;;;;;;;31.67;21.60;;;;;;;;;;4987444;28;20042;-69